Time;durP1;ratioP1;P1;durP2;ratioP2;P2;SDS_P1;SDS_P2;PMS_P1;PMS_P2;Temp;Humidity;BMP_temperature;BMP_pressure;BME280_temperature;BME280_humidity;BME280_pressure;Samples;Min_cycle;Max_cycle;Signal;HPM_P1;HPM_P2
2023/07/04 00:01:47;;;;;;;;;;;;;;;16.31;37.72;100214.75;4942044;28;98246;-70
2023/07/04 00:04:19;;;;;;;;;;;;;;;16.31;37.67;100215.56;4921540;28;99004;-70
2023/07/04 00:06:47;;;;;;;;;;;;;;;16.34;37.78;100204.03;4929949;28;98278;-67
2023/07/04 00:09:14;;;;;;;;;;;;;;;16.39;37.70;100219.47;4926407;28;98067;-67
2023/07/04 00:11:40;;;;;;;;;;;;;;;16.40;37.89;100215.63;4928544;28;98189;-67
2023/07/04 00:14:07;;;;;;;;;;;;;;;16.42;38.26;100214.16;4924466;28;98891;-67
2023/07/04 00:16:34;;;;;;;;;;;;;;;16.41;37.81;100212.56;4938270;28;98170;-67
2023/07/04 00:19:03;;;;;;;;;;;;;;;16.39;37.88;100203.13;4941230;28;97954;-70
2023/07/04 00:21:30;;;;;;;;;;;;;;;16.36;37.95;100201.03;4930377;28;98019;-67
2023/07/04 00:23:56;;;;;;;;;;;;;;;16.35;38.02;100207.59;4926977;28;97937;-67
2023/07/04 00:26:24;;;;;;;;;;;;;;;16.35;38.18;100207.59;4940386;28;98229;-67
2023/07/04 00:28:50;;;;;;;;;;;;;;;16.33;38.11;100201.66;4929975;28;98311;-67
2023/07/04 00:31:18;;;;;;;;;;;;;;;16.31;37.94;100201.97;4957883;28;99109;-67
2023/07/04 00:33:44;;;;;;;;;;;;;;;16.28;37.92;100204.50;4943774;28;98024;-67
2023/07/04 00:36:14;;;;;;;;;;;;;;;16.23;38.02;100193.75;4927339;28;98216;-69
2023/07/04 00:38:41;;;;;;;;;;;;;;;16.18;37.92;100197.41;4920483;28;98575;-69
2023/07/04 00:41:20;;;;;;;;;;;;;;;16.12;38.16;100195.94;4927312;28;98166;-70
2023/07/04 00:44:09;;;;;;;;;;;;;;;16.11;38.28;100208.75;4926772;28;97948;-67
2023/07/04 00:46:39;;;;;;;;;;;;;;;16.09;38.13;100202.78;4927986;28;98155;-67
2023/07/04 00:49:18;;;;;;;;;;;;;;;16.08;38.24;100203.13;4922520;28;97969;-67
2023/07/04 00:51:58;;;;;;;;;;;;;;;16.05;38.25;100207.25;4942828;28;98170;-70
2023/07/04 00:54:34;;;;;;;;;;;;;;;16.04;38.19;100202.94;4931857;28;98047;-70
2023/07/04 00:57:06;;;;;;;;;;;;;;;16.01;38.20;100208.97;4925610;28;98235;-67
2023/07/04 00:59:34;;;;;;;;;;;;;;;15.97;38.15;100205.28;4927498;28;98207;-66
2023/07/04 01:02:00;;;;;;;;;;;;;;;15.95;38.20;100204.75;4943762;28;98094;-70
2023/07/04 01:04:27;;;;;;;;;;;;;;;15.92;38.21;100197.25;4923392;28;98119;-69
2023/07/04 01:06:57;;;;;;;;;;;;;;;15.91;38.18;100201.06;4925976;28;97859;-70
2023/07/04 01:09:24;;;;;;;;;;;;;;;15.88;38.33;100205.22;4933898;28;98010;-70
2023/07/04 01:11:50;;;;;;;;;;;;;;;15.86;38.23;100204.72;4926832;28;98317;-67
2023/07/04 01:14:22;;;;;;;;;;;;;;;15.86;38.26;100198.47;4923488;28;98184;-70
2023/07/04 01:16:50;;;;;;;;;;;;;;;15.84;38.16;100201.50;4920805;28;98054;-66
2023/07/04 01:19:26;;;;;;;;;;;;;;;15.86;38.20;100207.44;4942702;28;99789;-67
2023/07/04 01:21:57;;;;;;;;;;;;;;;15.85;38.18;100200.41;4927640;28;98133;-67
2023/07/04 01:24:29;;;;;;;;;;;;;;;15.84;38.25;100201.50;4927267;28;98225;-70
2023/07/04 01:26:55;;;;;;;;;;;;;;;15.83;38.23;100199.09;4925807;28;98470;-70
2023/07/04 01:29:23;;;;;;;;;;;;;;;15.82;38.19;100198.28;4937657;28;98101;-66
2023/07/04 01:31:49;;;;;;;;;;;;;;;15.81;38.38;100193.16;4924269;28;98411;-70
2023/07/04 01:34:17;;;;;;;;;;;;;;;15.80;38.34;100194.25;4919823;28;98074;-67
2023/07/04 01:36:44;;;;;;;;;;;;;;;15.79;38.24;100193.47;4925802;28;98044;-67
2023/07/04 01:39:17;;;;;;;;;;;;;;;15.80;38.46;100197.81;4927145;28;98161;-69
2023/07/04 01:41:47;;;;;;;;;;;;;;;15.80;38.33;100197.81;4940469;28;98027;-66
2023/07/04 01:44:14;;;;;;;;;;;;;;;15.79;38.32;100203.53;4923718;28;97928;-70
2023/07/04 01:46:41;;;;;;;;;;;;;;;15.80;38.18;100207.84;4921013;28;97944;-67
2023/07/04 01:49:09;;;;;;;;;;;;;;;15.81;38.23;100204.03;4925562;28;98045;-70
2023/07/04 01:51:38;;;;;;;;;;;;;;;15.79;38.13;100198.91;4928476;28;98397;-69
2023/07/04 01:54:04;;;;;;;;;;;;;;;15.78;38.12;100202.72;4940360;28;97998;-69
2023/07/04 01:56:31;;;;;;;;;;;;;;;15.79;38.27;100204.34;4931345;28;98155;-67
2023/07/04 01:58:58;;;;;;;;;;;;;;;15.77;37.92;100195.69;4947810;28;98431;-69
2023/07/04 02:01:24;;;;;;;;;;;;;;;15.78;38.18;100199.22;4924865;28;98639;-67
2023/07/04 02:03:51;;;;;;;;;;;;;;;15.78;38.34;100200.00;4940845;28;98130;-69
2023/07/04 02:06:18;;;;;;;;;;;;;;;15.79;38.28;100198.91;4940910;27;98370;-66
2023/07/04 02:08:45;;;;;;;;;;;;;;;15.79;38.28;100198.09;4924348;28;98060;-66
2023/07/04 02:11:12;;;;;;;;;;;;;;;15.79;38.09;100190.75;4927158;28;98057;-66
2023/07/04 02:13:39;;;;;;;;;;;;;;;15.80;38.12;100199.69;4945037;27;98297;-67
2023/07/04 02:16:05;;;;;;;;;;;;;;;15.81;38.42;100191.25;4941506;28;98091;-69
2023/07/04 02:18:32;;;;;;;;;;;;;;;15.82;38.22;100192.06;4930666;27;97979;-66
2023/07/04 02:20:59;;;;;;;;;;;;;;;15.83;38.27;100189.00;4929791;27;97990;-67
2023/07/04 02:23:25;;;;;;;;;;;;;;;15.84;38.38;100184.41;4930894;28;99205;-69
2023/07/04 02:25:53;;;;;;;;;;;;;;;15.83;38.15;100191.72;4925045;27;98503;-69
2023/07/04 02:28:19;;;;;;;;;;;;;;;15.85;38.29;100194.16;4943384;27;98290;-66
2023/07/04 02:30:56;;;;;;;;;;;;;;;15.85;38.00;100189.53;4921898;27;98202;-66
2023/07/04 02:33:23;;;;;;;;;;;;;;;15.86;38.22;100193.03;4943591;28;98123;-67
2023/07/04 02:35:49;;;;;;;;;;;;;;;15.86;38.18;100190.31;4926893;28;98193;-66
2023/07/04 02:38:16;;;;;;;;;;;;;;;15.86;38.22;100185.69;4922949;28;98645;-67
2023/07/04 02:40:46;;;;;;;;;;;;;;;15.88;38.27;100185.41;4943798;27;98511;-69
2023/07/04 02:43:12;;;;;;;;;;;;;;;15.89;38.28;100189.72;4939420;28;98893;-70
2023/07/04 02:45:39;;;;;;;;;;;;;;;15.88;38.37;100182.69;4932452;27;98271;-69
2023/07/04 02:48:06;;;;;;;;;;;;;;;15.90;38.29;100189.38;4946061;28;98033;-66
2023/07/04 02:50:33;;;;;;;;;;;;;;;15.90;38.22;100192.09;4925931;28;98213;-66
2023/07/04 02:52:59;;;;;;;;;;;;;;;15.91;38.34;100191.00;4924485;27;97909;-67
2023/07/04 02:55:25;;;;;;;;;;;;;;;15.94;38.35;100190.38;4940684;28;98144;-67
2023/07/04 02:57:52;;;;;;;;;;;;;;;15.96;38.11;100187.38;4927619;27;98051;-70
2023/07/04 03:00:18;;;;;;;;;;;;;;;15.95;38.15;100189.28;4927990;27;98032;-69
2023/07/04 03:02:44;;;;;;;;;;;;;;;15.98;38.38;100189.75;4930642;27;98018;-70
2023/07/04 03:05:11;;;;;;;;;;;;;;;16.01;38.28;100183.72;4945289;28;98239;-67
2023/07/04 03:07:37;;;;;;;;;;;;;;;16.04;38.04;100185.81;4932139;28;99455;-66
2023/07/04 03:10:04;;;;;;;;;;;;;;;16.07;38.23;100186.00;4943424;28;99469;-66
2023/07/04 03:12:31;;;;;;;;;;;;;;;16.11;38.35;100195.16;4929413;27;97959;-70
2023/07/04 03:14:57;;;;;;;;;;;;;;;16.15;38.26;100192.56;4931505;28;98330;-69
2023/07/04 03:17:24;;;;;;;;;;;;;;;16.20;38.27;100189.75;4933221;28;100243;-70
2023/07/04 03:19:50;;;;;;;;;;;;;;;16.24;38.05;100195.38;4941896;27;98128;-69
2023/07/04 03:22:17;;;;;;;;;;;;;;;16.28;38.09;100202.59;4923976;28;98254;-66
2023/07/04 03:24:44;;;;;;;;;;;;;;;16.33;38.22;100194.28;4949873;27;98064;-66
2023/07/04 03:27:10;;;;;;;;;;;;;;;16.39;38.09;100197.69;4933382;28;98258;-66
2023/07/04 03:29:38;;;;;;;;;;;;;;;16.43;38.16;100191.31;4929692;28;100902;-67
2023/07/04 03:32:04;;;;;;;;;;;;;;;16.49;38.11;100199.34;4936211;27;97896;-68
2023/07/04 03:34:31;;;;;;;;;;;;;;;16.55;38.12;100201.59;4945294;28;98528;-69
2023/07/04 03:36:58;;;;;;;;;;;;;;;16.61;38.09;100211.22;4949970;28;98045;-69
2023/07/04 03:39:25;;;;;;;;;;;;;;;16.67;38.18;100209.19;4929780;27;98390;-66
2023/07/04 03:41:51;;;;;;;;;;;;;;;16.74;38.14;100209.56;4934210;28;98220;-66
2023/07/04 03:44:18;;;;;;;;;;;;;;;16.80;38.28;100215.66;4931385;28;99223;-66
2023/07/04 03:46:44;;;;;;;;;;;;;;;16.87;37.91;100216.00;4945920;27;98596;-69
2023/07/04 03:49:10;;;;;;;;;;;;;;;16.94;38.04;100216.34;4931762;28;97910;-70
2023/07/04 03:51:37;;;;;;;;;;;;;;;17.01;37.99;100213.16;4929454;27;99125;-66
2023/07/04 03:54:04;;;;;;;;;;;;;;;17.08;38.04;100213.50;4927522;28;97839;-69
2023/07/04 03:56:30;;;;;;;;;;;;;;;17.16;37.98;100216.22;4933385;27;97847;-70
2023/07/04 03:58:56;;;;;;;;;;;;;;;17.23;37.92;100221.22;4948125;27;98245;-69
2023/07/04 04:01:22;;;;;;;;;;;;;;;17.31;38.07;100222.38;4932510;28;98231;-67
2023/07/04 04:03:48;;;;;;;;;;;;;;;17.38;37.97;100222.69;4931665;27;98285;-70
2023/07/04 04:06:15;;;;;;;;;;;;;;;17.46;37.92;100223.84;4931469;28;98661;-70
2023/07/04 04:08:41;;;;;;;;;;;;;;;17.52;37.91;100228.00;4942876;27;98144;-67
2023/07/04 04:11:07;;;;;;;;;;;;;;;17.60;37.96;100235.38;4942654;27;98075;-67
2023/07/04 04:13:34;;;;;;;;;;;;;;;17.64;38.00;100231.72;4930298;27;98027;-69
2023/07/04 04:16:00;;;;;;;;;;;;;;;17.73;37.81;100237.16;4929577;28;98020;-69
2023/07/04 04:18:27;;;;;;;;;;;;;;;17.78;37.98;100237.03;4932431;28;98008;-67
2023/07/04 04:20:53;;;;;;;;;;;;;;;17.84;37.82;100241.19;4941775;27;99181;-69
2023/07/04 04:23:21;;;;;;;;;;;;;;;17.90;38.06;100239.91;4927862;28;98507;-70
2023/07/04 04:25:48;;;;;;;;;;;;;;;17.96;38.00;100248.72;4931971;27;98269;-66
2023/07/04 04:28:14;;;;;;;;;;;;;;;18.02;37.81;100247.44;4928153;28;98191;-67
2023/07/04 04:30:41;;;;;;;;;;;;;;;18.09;37.90;100249.69;4952282;27;98809;-66
2023/07/04 04:33:07;;;;;;;;;;;;;;;18.17;37.95;100251.59;4926928;28;98127;-66
2023/07/04 04:35:36;;;;;;;;;;;;;;;18.25;37.85;100258.16;4930351;27;98140;-66
2023/07/04 04:38:02;;;;;;;;;;;;;;;18.31;37.98;100260.41;4947516;27;99287;-67
2023/07/04 04:40:28;;;;;;;;;;;;;;;18.38;37.68;100262.63;4946981;28;97900;-66
2023/07/04 04:42:56;;;;;;;;;;;;;;;18.43;37.99;100259.72;4928146;27;98165;-70
2023/07/04 04:45:28;;;;;;;;;;;;;;;18.48;37.70;100265.00;4931610;28;98192;-69
2023/07/04 04:47:54;;;;;;;;;;;;;;;18.56;37.82;100266.13;4934661;27;98266;-67
2023/07/04 04:50:21;;;;;;;;;;;;;;;18.61;37.93;100265.94;4925679;27;98912;-69
2023/07/04 04:52:48;;;;;;;;;;;;;;;18.67;37.86;100272.84;4964492;27;98121;-70
2023/07/04 04:55:15;;;;;;;;;;;;;;;18.75;37.72;100276.69;4929391;28;99955;-66
2023/07/04 04:57:41;;;;;;;;;;;;;;;18.82;37.97;100277.78;4929722;27;98220;-70
2023/07/04 05:00:08;;;;;;;;;;;;;;;18.87;37.79;100269.41;4922042;28;99546;-66
2023/07/04 05:02:35;;;;;;;;;;;;;;;18.96;37.75;100279.50;4924619;28;98356;-70
2023/07/04 05:05:02;;;;;;;;;;;;;;;19.04;37.68;100279.44;4923686;27;97847;-67
2023/07/04 05:07:29;;;;;;;;;;;;;;;19.14;37.79;100283.75;4937866;28;98218;-69
2023/07/04 05:09:56;;;;;;;;;;;;;;;19.26;37.72;100288.53;4942415;27;99538;-69
2023/07/04 05:12:22;;;;;;;;;;;;;;;19.35;37.64;100278.34;4931496;28;98459;-70
2023/07/04 05:14:50;;;;;;;;;;;;;;;19.48;37.51;100288.22;4923677;28;98663;-69
2023/07/04 05:17:17;;;;;;;;;;;;;;;19.64;37.31;100283.00;4921170;28;98273;-70
2023/07/04 05:19:43;;;;;;;;;;;;;;;19.78;37.39;100290.94;4939763;28;98282;-66
2023/07/04 05:22:09;;;;;;;;;;;;;;;19.94;37.27;100291.16;4924593;27;98265;-70
2023/07/04 05:24:36;;;;;;;;;;;;;;;20.08;37.31;100280.72;4928122;27;98141;-66
2023/07/04 05:27:02;;;;;;;;;;;;;;;20.23;37.13;100293.78;4926067;27;99634;-66
2023/07/04 05:29:29;;;;;;;;;;;;;;;20.39;37.19;100290.41;4924646;27;97913;-70
2023/07/04 05:31:56;;;;;;;;;;;;;;;20.55;37.01;100285.91;4944675;27;98188;-68
2023/07/04 05:34:23;;;;;;;;;;;;;;;20.71;36.93;100292.38;4922399;28;98425;-70
2023/07/04 05:36:49;;;;;;;;;;;;;;;20.87;36.89;100292.50;4931055;27;98001;-70
2023/07/04 05:39:16;;;;;;;;;;;;;;;21.04;36.84;100295.03;4928688;28;97935;-69
2023/07/04 05:41:42;;;;;;;;;;;;;;;21.21;36.87;100290.47;4929999;27;98199;-66
2023/07/04 05:44:09;;;;;;;;;;;;;;;21.41;36.65;100296.97;4928447;28;97984;-69
2023/07/04 05:46:36;;;;;;;;;;;;;;;21.60;36.63;100294.44;4927645;27;98080;-70
2023/07/04 05:49:04;;;;;;;;;;;;;;;21.86;36.49;100302.28;4921650;28;98128;-66
2023/07/04 05:51:31;;;;;;;;;;;;;;;22.11;36.49;100299.47;4944982;28;98657;-67
2023/07/04 05:53:57;;;;;;;;;;;;;;;22.41;36.41;100308.19;4930419;27;98657;-70
2023/07/04 05:56:24;;;;;;;;;;;;;;;22.71;36.49;100316.81;4926983;28;98141;-67
2023/07/04 05:58:55;;;;;;;;;;;;;;;23.05;36.26;100309.06;4944980;27;98457;-67
2023/07/04 06:01:42;;;;;;;;;;;;;;;23.35;36.60;100309.41;4930523;27;97911;-67
2023/07/04 06:04:09;;;;;;;;;;;;;;;23.70;36.11;100314.94;4943821;27;98745;-71
2023/07/04 06:06:50;;;;;;;;;;;;;;;24.03;36.31;100314.47;4923753;27;97954;-67
2023/07/04 06:09:17;;;;;;;;;;;;;;;24.42;36.32;100322.75;4945606;28;98191;-70
2023/07/04 06:11:45;;;;;;;;;;;;;;;24.85;35.96;100321.56;4929965;28;98465;-71
2023/07/04 06:14:24;;;;;;;;;;;;;;;25.39;35.82;100317.75;4928227;27;99931;-71
2023/07/04 06:16:50;;;;;;;;;;;;;;;27.59;33.92;100320.56;4944737;27;98293;-71
2023/07/04 06:19:19;;;;;;;;;;;;;;;27.56;34.39;100329.63;4930066;28;98417;-71
2023/07/04 06:21:45;;;;;;;;;;;;;;;27.54;34.63;100323.69;4931672;27;98031;-68
2023/07/04 06:24:13;;;;;;;;;;;;;;;27.68;35.19;100319.41;4943368;27;98617;-68
2023/07/04 06:26:40;;;;;;;;;;;;;;;28.33;34.57;100326.84;4928978;28;98168;-72
2023/07/04 06:29:06;;;;;;;;;;;;;;;28.81;35.00;100326.59;4937121;27;99649;-71
2023/07/04 06:31:33;;;;;;;;;;;;;;;29.33;34.68;100335.34;4930271;27;98137;-72
2023/07/04 06:34:00;;;;;;;;;;;;;;;30.09;34.31;100326.41;4926028;28;100460;-68
2023/07/04 06:36:26;;;;;;;;;;;;;;;30.75;33.94;100331.28;4932906;27;99065;-68
2023/07/04 06:38:54;;;;;;;;;;;;;;;31.07;33.84;100343.38;4924615;28;98087;-69
2023/07/04 06:41:20;;;;;;;;;;;;;;;31.46;33.42;100343.03;4929977;27;99471;-72
2023/07/04 06:43:46;;;;;;;;;;;;;;;32.09;32.93;100337.97;4935248;27;98127;-70
2023/07/04 06:46:14;;;;;;;;;;;;;;;31.92;33.24;100345.38;4946691;27;98276;-72
2023/07/04 06:48:41;;;;;;;;;;;;;;;31.73;33.65;100335.59;4935558;27;97892;-72
2023/07/04 06:51:08;;;;;;;;;;;;;;;31.70;33.76;100336.41;4942859;28;98513;-68
2023/07/04 06:53:35;;;;;;;;;;;;;;;31.66;33.85;100341.22;4934533;27;99911;-72
2023/07/04 06:56:07;;;;;;;;;;;;;;;31.77;33.83;100327.19;4930786;28;100839;-72
2023/07/04 06:58:34;;;;;;;;;;;;;;;31.88;33.72;100341.03;4965336;27;98276;-69
2023/07/04 07:01:04;;;;;;;;;;;;;;;31.96;33.71;100337.75;4923683;27;98267;-72
2023/07/04 07:03:31;;;;;;;;;;;;;;;32.08;33.62;100342.00;4931916;27;98303;-72
2023/07/04 07:05:58;;;;;;;;;;;;;;;32.31;33.29;100332.16;4946858;28;98389;-69
2023/07/04 07:08:24;;;;;;;;;;;;;;;32.61;33.00;100343.28;4929948;27;98638;-69
2023/07/04 07:10:52;;;;;;;;;;;;;;;33.11;33.13;100347.31;4945479;27;97980;-69
2023/07/04 07:13:19;;;;;;;;;;;;;;;33.55;32.86;100346.16;4930497;28;98049;-69
2023/07/04 07:15:45;;;;;;;;;;;;;;;33.81;32.68;100357.66;4925603;27;98369;-70
2023/07/04 07:18:12;;;;;;;;;;;;;;;33.87;32.31;100339.94;4928986;28;99283;-73
2023/07/04 07:20:39;;;;;;;;;;;;;;;33.51;32.91;100351.03;4922842;27;98513;-73
2023/07/04 07:23:05;;;;;;;;;;;;;;;33.32;33.11;100349.72;4950105;28;97996;-69
2023/07/04 07:25:32;;;;;;;;;;;;;;;33.82;32.54;100351.63;4931093;27;98113;-73
2023/07/04 07:27:59;;;;;;;;;;;;;;;32.91;33.98;100356.38;4931561;28;98159;-73
2023/07/04 07:30:25;;;;;;;;;;;;;;;31.70;34.51;100360.69;4928373;27;98252;-71
2023/07/04 07:32:52;;;;;;;;;;;;;;;32.20;33.82;100351.78;4931505;27;98248;-73
2023/07/04 07:35:19;;;;;;;;;;;;;;;33.18;32.84;100353.56;4936719;28;98130;-69
2023/07/04 07:37:47;;;;;;;;;;;;;;;33.70;32.90;100349.47;4945438;27;98217;-71
2023/07/04 07:40:14;;;;;;;;;;;;;;;34.04;32.45;100340.84;4947737;27;98295;-73
2023/07/04 07:42:40;;;;;;;;;;;;;;;34.39;32.55;100347.69;4942601;27;98039;-70
2023/07/04 07:45:07;;;;;;;;;;;;;;;34.74;32.23;100347.31;4927899;28;99363;-70
2023/07/04 07:47:33;;;;;;;;;;;;;;;34.86;32.10;100341.03;4945982;27;108157;-71
2023/07/04 07:49:59;;;;;;;;;;;;;;;35.45;31.92;100339.16;4929764;28;98120;-72
2023/07/04 07:52:26;;;;;;;;;;;;;;;36.00;31.40;100340.91;4943073;27;98310;-70
2023/07/04 07:54:52;;;;;;;;;;;;;;;36.41;31.40;100341.28;4929114;27;100272;-70
2023/07/04 07:57:19;;;;;;;;;;;;;;;36.52;31.38;100339.75;4930630;28;98114;-71
2023/07/04 07:59:45;;;;;;;;;;;;;;;35.63;32.48;100334.69;4930775;27;98394;-71
2023/07/04 08:02:13;;;;;;;;;;;;;;;36.49;31.75;100342.66;4934252;28;99667;-70
2023/07/04 08:04:39;;;;;;;;;;;;;;;37.37;31.36;100343.00;4921847;27;98242;-71
2023/07/04 08:07:08;;;;;;;;;;;;;;;37.96;30.97;100339.28;4927130;28;98117;-71
2023/07/04 08:09:34;;;;;;;;;;;;;;;38.57;30.40;100328.53;4933248;27;98247;-71
2023/07/04 08:12:00;;;;;;;;;;;;;;;39.24;30.07;100338.28;4921601;28;98103;-71
2023/07/04 08:14:27;;;;;;;;;;;;;;;39.78;29.97;100342.38;4930937;27;98461;-71
2023/07/04 08:16:54;;;;;;;;;;;;;;;40.55;29.75;100333.53;4930321;27;99442;-72
2023/07/04 08:19:21;;;;;;;;;;;;;;;40.36;30.04;100329.22;4940733;27;119846;-72
2023/07/04 08:21:47;;;;;;;;;;;;;;;41.31;29.32;100341.91;4925560;27;98303;-72
2023/07/04 08:24:14;;;;;;;;;;;;;;;41.92;28.99;100339.50;4923369;28;98446;-73
2023/07/04 08:26:44;;;;;;;;;;;;;;;42.31;29.00;100339.41;4931799;27;99371;-71
2023/07/04 08:29:10;;;;;;;;;;;;;;;42.74;28.88;100328.47;4939817;28;97987;-72
2023/07/04 08:31:37;;;;;;;;;;;;;;;43.13;28.68;100324.13;4926467;27;98157;-73
2023/07/04 08:34:05;;;;;;;;;;;;;;;42.95;29.19;100335.72;4927105;27;97954;-72
2023/07/04 08:36:31;;;;;;;;;;;;;;;43.47;28.73;100332.25;4932312;27;98030;-72
2023/07/04 08:38:58;;;;;;;;;;;;;;;43.53;28.92;100333.09;4930390;27;98160;-70
2023/07/04 08:41:52;;;;;;;;;;;;;;;43.71;28.93;100332.00;4947052;27;98163;-70
2023/07/04 08:44:42;;;;;;;;;;;;;;;44.01;28.69;100327.66;4960277;28;98617;-73
2023/07/04 08:47:09;;;;;;;;;;;;;;;44.55;28.81;100321.38;4948222;27;98874;-70
2023/07/04 08:49:40;;;;;;;;;;;;;;;44.34;29.21;100323.56;4940943;27;98004;-73
2023/07/04 08:52:14;;;;;;;;;;;;;;;44.40;28.93;100321.53;4928017;28;98337;-72
2023/07/04 08:54:41;;;;;;;;;;;;;;;45.09;28.23;100329.97;4968497;27;97893;-69
2023/07/04 08:57:19;;;;;;;;;;;;;;;45.63;28.10;100324.19;4928719;28;99679;-67
2023/07/04 08:59:45;;;;;;;;;;;;;;;45.75;28.17;100337.13;4956154;27;98373;-69
2023/07/04 09:02:33;;;;;;;;;;;;;;;46.09;28.25;100322.94;4944191;27;98920;-71
2023/07/04 09:05:10;;;;;;;;;;;;;;;46.25;27.80;100327.84;4959172;28;98193;-70
2023/07/04 09:07:43;;;;;;;;;;;;;;;46.24;28.19;100325.53;4939958;28;98165;-67
2023/07/04 09:10:36;;;;;;;;;;;;;;;46.25;28.13;100327.09;4954573;28;99057;-67
2023/07/04 09:13:04;;;;;;;;;;;;;;;46.23;28.22;100327.63;4944304;28;98127;-67
2023/07/04 09:15:45;;;;;;;;;;;;;;;45.70;28.55;100309.44;4925033;28;98287;-70
2023/07/04 09:18:21;;;;;;;;;;;;;;;45.81;28.37;100330.66;4922989;28;99213;-70
2023/07/04 09:21:09;;;;;;;;;;;;;;;46.09;28.43;100327.84;4927316;28;98204;-70
2023/07/04 09:23:35;;;;;;;;;;;;;;;45.16;28.89;100332.31;4957012;28;98851;-66
2023/07/04 09:26:01;;;;;;;;;;;;;;;44.39;29.75;100331.34;4922729;28;97987;-67
2023/07/04 09:28:28;;;;;;;;;;;;;;;42.81;30.90;100326.00;4945670;28;98843;-67
2023/07/04 09:30:54;;;;;;;;;;;;;;;41.93;31.47;100321.25;4926082;28;99452;-71
2023/07/04 09:33:23;;;;;;;;;;;;;;;42.33;30.42;100334.81;4927631;28;98016;-72
2023/07/04 09:35:49;;;;;;;;;;;;;;;42.24;30.89;100323.59;4928589;28;98048;-69
2023/07/04 09:38:16;;;;;;;;;;;;;;;41.62;30.96;100330.16;4927064;28;99706;-71
2023/07/04 09:40:44;;;;;;;;;;;;;;;42.73;29.61;100324.09;4944561;28;97898;-68
2023/07/04 09:43:11;;;;;;;;;;;;;;;41.36;31.07;100324.28;4927695;28;98250;-68
2023/07/04 09:45:37;;;;;;;;;;;;;;;43.16;29.09;100332.94;4924418;28;98145;-68
2023/07/04 09:48:08;;;;;;;;;;;;;;;44.06;28.81;100329.78;4922389;28;100064;-69
2023/07/04 09:50:38;;;;;;;;;;;;;;;43.98;28.97;100325.84;4938192;28;98053;-68
2023/07/04 09:53:09;;;;;;;;;;;;;;;44.25;28.70;100326.56;4922978;28;98341;-73
2023/07/04 09:55:37;;;;;;;;;;;;;;;43.94;28.69;100330.97;4920497;28;98036;-71
2023/07/04 09:58:20;;;;;;;;;;;;;;;43.07;29.56;100326.09;4928998;28;98060;-70
2023/07/04 10:01:06;;;;;;;;;;;;;;;42.86;29.98;100330.97;4952075;28;98086;-70
2023/07/04 10:03:33;;;;;;;;;;;;;;;40.70;31.44;100320.28;4923267;28;98651;-66
2023/07/04 10:05:59;;;;;;;;;;;;;;;41.67;30.26;100318.22;4922731;28;98084;-70
2023/07/04 10:08:25;;;;;;;;;;;;;;;42.26;29.76;100321.06;4923953;28;100563;-67
2023/07/04 10:10:53;;;;;;;;;;;;;;;42.09;29.97;100319.97;4923798;28;98471;-66
2023/07/04 10:13:39;;;;;;;;;;;;;;;43.19;28.78;100310.00;4924808;28;98058;-70
2023/07/04 10:16:23;;;;;;;;;;;;;;;43.29;28.95;100317.09;4943332;28;98017;-71
2023/07/04 10:18:49;;;;;;;;;;;;;;;40.81;31.09;100313.34;4940413;28;98134;-67
2023/07/04 10:21:16;;;;;;;;;;;;;;;39.28;32.07;100310.72;4928239;28;97862;-66
2023/07/04 10:23:43;;;;;;;;;;;;;;;40.96;30.07;100314.19;4918060;28;98419;-67
2023/07/04 10:26:09;;;;;;;;;;;;;;;41.60;29.78;100308.06;4926085;28;98287;-66
2023/07/04 10:28:36;;;;;;;;;;;;;;;41.19;29.98;100312.63;4926382;28;98284;-70
2023/07/04 10:31:11;;;;;;;;;;;;;;;41.14;30.21;100297.09;4921434;28;98057;-66
2023/07/04 10:33:45;;;;;;;;;;;;;;;39.45;31.62;100303.50;4942244;28;97866;-71
2023/07/04 10:36:13;;;;;;;;;;;;;;;39.85;30.85;100299.72;4939740;28;98071;-67
2023/07/04 10:38:46;;;;;;;;;;;;;;;40.71;30.14;100315.41;4916221;28;98306;-66
2023/07/04 10:41:18;;;;;;;;;;;;;;;40.89;29.79;100311.72;4919253;28;98339;-66
2023/07/04 10:43:49;;;;;;;;;;;;;;;39.02;31.55;100313.78;4924636;28;98668;-73
2023/07/04 10:46:22;;;;;;;;;;;;;;;39.68;30.67;100307.75;4942586;28;100172;-69
2023/07/04 10:48:49;;;;;;;;;;;;;;;41.10;29.43;100313.47;4941605;28;99070;-69
2023/07/04 10:51:22;;;;;;;;;;;;;;;41.12;29.77;100316.59;4938990;28;98108;-71
2023/07/04 10:53:49;;;;;;;;;;;;;;;38.96;31.82;100300.81;4916827;28;98325;-69
2023/07/04 10:56:24;;;;;;;;;;;;;;;40.37;30.27;100309.00;4921762;28;97913;-73
2023/07/04 10:58:52;;;;;;;;;;;;;;;39.15;31.06;100304.44;4925814;28;98142;-69
2023/07/04 11:01:21;;;;;;;;;;;;;;;37.94;31.82;100302.41;4926799;28;98135;-73
2023/07/04 11:03:57;;;;;;;;;;;;;;;39.34;30.66;100308.06;4939393;28;98144;-72
2023/07/04 11:07:00;;;;;;;;;;;;;;;37.57;32.29;100316.22;4942450;28;98144;-72
2023/07/04 11:09:26;;;;;;;;;;;;;;;38.79;30.67;100315.19;4948042;28;97977;-69
2023/07/04 11:11:53;;;;;;;;;;;;;;;37.99;31.44;100321.50;4948875;27;98148;-73
2023/07/04 11:14:27;;;;;;;;;;;;;;;38.83;30.40;100317.03;4943623;28;99287;-73
2023/07/04 11:16:54;;;;;;;;;;;;;;;36.83;32.64;100311.88;4943729;27;98087;-69
2023/07/04 11:19:25;;;;;;;;;;;;;;;36.12;32.85;100302.91;4926433;28;98270;-72
2023/07/04 11:22:00;;;;;;;;;;;;;;;37.01;31.86;100296.47;4931625;27;98074;-68
2023/07/04 11:24:36;;;;;;;;;;;;;;;35.15;33.34;100305.53;4974668;27;99372;-68
2023/07/04 11:27:08;;;;;;;;;;;;;;;36.70;31.54;100299.88;4929240;28;98188;-74
2023/07/04 11:29:54;;;;;;;;;;;;;;;34.60;33.15;100303.69;4931463;27;97906;-68
2023/07/04 11:32:25;;;;;;;;;;;;;;;36.81;30.98;100310.75;4943928;28;98360;-72
2023/07/04 11:35:03;;;;;;;;;;;;;;;37.36;30.57;100314.13;4945829;27;98062;-68
2023/07/04 11:37:30;;;;;;;;;;;;;;;35.95;31.97;100304.94;4949199;27;98070;-68
2023/07/04 11:39:58;;;;;;;;;;;;;;;37.37;30.56;100304.44;4962018;27;99009;-69
2023/07/04 11:42:40;;;;;;;;;;;;;;;37.66;30.80;100303.47;4965304;27;98381;-72
2023/07/04 11:45:16;;;;;;;;;;;;;;;37.20;31.16;100312.25;4964172;28;100272;-67
2023/07/04 11:47:47;;;;;;;;;;;;;;;37.81;30.59;100301.69;4927129;27;97968;-69
2023/07/04 11:50:27;;;;;;;;;;;;;;;36.14;32.26;100303.22;4944638;28;98135;-69
2023/07/04 11:52:57;;;;;;;;;;;;;;;36.08;32.04;100296.59;4933557;27;98145;-72
2023/07/04 11:55:31;;;;;;;;;;;;;;;35.98;32.05;100290.06;4923321;28;98493;-73
2023/07/04 11:58:06;;;;;;;;;;;;;;;35.59;32.28;100288.38;4923880;28;98092;-72
2023/07/04 12:00:35;;;;;;;;;;;;;;;36.29;31.62;100290.34;4957655;27;97807;-68
2023/07/04 12:03:20;;;;;;;;;;;;;;;35.54;32.14;100289.72;4955540;27;98083;-68
2023/07/04 12:05:57;;;;;;;;;;;;;;;34.83;32.93;100285.94;4958554;27;98157;-68
2023/07/04 12:08:42;;;;;;;;;;;;;;;34.49;33.19;100275.19;4920709;28;98058;-72
2023/07/04 12:11:23;;;;;;;;;;;;;;;35.33;32.15;100287.47;4928476;28;97998;-73
2023/07/04 12:13:49;;;;;;;;;;;;;;;34.56;32.89;100272.22;4931272;27;98178;-68
2023/07/04 12:16:19;;;;;;;;;;;;;;;34.02;33.41;100287.38;4926826;27;98556;-72
2023/07/04 12:18:45;;;;;;;;;;;;;;;33.67;33.48;100283.28;4944386;27;97916;-68
2023/07/04 12:21:11;;;;;;;;;;;;;;;33.65;33.00;100282.94;4942302;28;100916;-72
2023/07/04 12:23:38;;;;;;;;;;;;;;;33.54;33.19;100283.16;4926068;27;98500;-72
2023/07/04 12:26:05;;;;;;;;;;;;;;;33.86;32.69;100278.91;4926918;28;98033;-73
2023/07/04 12:28:32;;;;;;;;;;;;;;;33.13;33.15;100283.47;4931268;28;98113;-68
2023/07/04 12:31:02;;;;;;;;;;;;;;;32.99;33.27;100285.31;4922064;27;98054;-72
2023/07/04 12:33:34;;;;;;;;;;;;;;;33.04;33.08;100283.25;4926355;28;98236;-72
2023/07/04 12:36:09;;;;;;;;;;;;;;;33.37;32.74;100270.28;4928845;27;98199;-68
2023/07/04 12:38:45;;;;;;;;;;;;;;;34.30;32.19;100266.38;4930110;27;99880;-73
2023/07/04 12:41:15;;;;;;;;;;;;;;;34.81;31.84;100280.78;4945120;28;99729;-73
2023/07/04 12:43:41;;;;;;;;;;;;;;;35.38;31.31;100278.53;4932626;27;98168;-73
2023/07/04 12:46:09;;;;;;;;;;;;;;;34.89;32.11;100287.75;4941582;28;98139;-72